sensor_id;sensor_type;location;lat;lon;timestamp;temperature;humidity
4245;DHT22;2136;48.502;9.194;2022-12-18T00:02:15;-7.70;65.90
4245;DHT22;2136;48.502;9.194;2022-12-18T00:04:43;-7.70;65.80
4245;DHT22;2136;48.502;9.194;2022-12-18T00:07:10;-7.80;65.70
4245;DHT22;2136;48.502;9.194;2022-12-18T00:09:37;-7.80;65.90
4245;DHT22;2136;48.502;9.194;2022-12-18T00:12:04;-7.80;66.10
4245;DHT22;2136;48.502;9.194;2022-12-18T00:14:31;-7.80;65.90
4245;DHT22;2136;48.502;9.194;2022-12-18T00:16:58;-7.90;65.00
4245;DHT22;2136;48.502;9.194;2022-12-18T00:19:26;-7.90;64.70
4245;DHT22;2136;48.502;9.194;2022-12-18T00:21:54;-7.90;64.80
4245;DHT22;2136;48.502;9.194;2022-12-18T00:24:21;-8.00;64.90
4245;DHT22;2136;48.502;9.194;2022-12-18T00:26:47;-8.00;64.60
4245;DHT22;2136;48.502;9.194;2022-12-18T00:29:14;-8.10;64.40
4245;DHT22;2136;48.502;9.194;2022-12-18T00:31:42;-8.10;64.60
4245;DHT22;2136;48.502;9.194;2022-12-18T00:34:10;-8.00;65.00
4245;DHT22;2136;48.502;9.194;2022-12-18T00:36:39;-8.00;64.70
4245;DHT22;2136;48.502;9.194;2022-12-18T00:39:07;-8.00;64.60
4245;DHT22;2136;48.502;9.194;2022-12-18T00:41:34;-8.00;64.40
4245;DHT22;2136;48.502;9.194;2022-12-18T00:44:19;-8.00;64.40
4245;DHT22;2136;48.502;9.194;2022-12-18T00:46:47;-8.10;63.90
4245;DHT22;2136;48.502;9.194;2022-12-18T00:49:14;-8.20;63.40
4245;DHT22;2136;48.502;9.194;2022-12-18T00:51:41;-8.20;63.50
4245;DHT22;2136;48.502;9.194;2022-12-18T00:54:09;-8.20;63.40
4245;DHT22;2136;48.502;9.194;2022-12-18T00:56:38;-8.30;63.50
4245;DHT22;2136;48.502;9.194;2022-12-18T00:59:05;-8.30;63.40
4245;DHT22;2136;48.502;9.194;2022-12-18T01:01:32;-8.30;63.30
4245;DHT22;2136;48.502;9.194;2022-12-18T01:04:00;-8.30;63.40
4245;DHT22;2136;48.502;9.194;2022-12-18T01:06:27;-8.30;63.40
4245;DHT22;2136;48.502;9.194;2022-12-18T01:08:54;-8.30;63.20
4245;DHT22;2136;48.502;9.194;2022-12-18T01:11:22;-8.30;62.90
4245;DHT22;2136;48.502;9.194;2022-12-18T01:13:49;-8.30;62.50
4245;DHT22;2136;48.502;9.194;2022-12-18T01:16:17;-8.30;62.30
4245;DHT22;2136;48.502;9.194;2022-12-18T01:18:44;-8.40;62.20
4245;DHT22;2136;48.502;9.194;2022-12-18T01:21:13;-8.40;62.20
4245;DHT22;2136;48.502;9.194;2022-12-18T01:23:41;-8.40;62.40
4245;DHT22;2136;48.502;9.194;2022-12-18T01:26:10;-8.50;62.40
4245;DHT22;2136;48.502;9.194;2022-12-18T01:28:38;-8.50;62.50
4245;DHT22;2136;48.502;9.194;2022-12-18T01:31:14;-8.60;62.50
4245;DHT22;2136;48.502;9.194;2022-12-18T01:33:41;-8.60;62.60
4245;DHT22;2136;48.502;9.194;2022-12-18T01:36:13;-8.60;62.80
4245;DHT22;2136;48.502;9.194;2022-12-18T01:38:40;-8.60;63.00
4245;DHT22;2136;48.502;9.194;2022-12-18T01:41:08;-8.70;63.60
4245;DHT22;2136;48.502;9.194;2022-12-18T01:43:49;-8.70;63.10
4245;DHT22;2136;48.502;9.194;2022-12-18T01:46:18;-8.70;63.30
4245;DHT22;2136;48.502;9.194;2022-12-18T01:48:49;-8.70;63.40
4245;DHT22;2136;48.502;9.194;2022-12-18T01:51:16;-8.70;63.20
4245;DHT22;2136;48.502;9.194;2022-12-18T01:53:44;-8.70;63.00
4245;DHT22;2136;48.502;9.194;2022-12-18T01:56:16;-8.70;63.30
4245;DHT22;2136;48.502;9.194;2022-12-18T01:58:52;-8.70;63.50
4245;DHT22;2136;48.502;9.194;2022-12-18T02:01:21;-8.60;63.60
4245;DHT22;2136;48.502;9.194;2022-12-18T02:03:49;-8.60;63.30
4245;DHT22;2136;48.502;9.194;2022-12-18T02:06:20;-8.60;63.20
4245;DHT22;2136;48.502;9.194;2022-12-18T02:08:57;-8.60;63.30
4245;DHT22;2136;48.502;9.194;2022-12-18T02:11:35;-8.50;63.70
4245;DHT22;2136;48.502;9.194;2022-12-18T02:14:14;-8.50;63.70
4245;DHT22;2136;48.502;9.194;2022-12-18T02:16:46;-8.50;63.50
4245;DHT22;2136;48.502;9.194;2022-12-18T02:19:30;-8.50;63.30
4245;DHT22;2136;48.502;9.194;2022-12-18T02:22:10;-8.50;62.90
4245;DHT22;2136;48.502;9.194;2022-12-18T02:24:45;-8.50;62.70
4245;DHT22;2136;48.502;9.194;2022-12-18T02:27:19;-8.50;62.40
4245;DHT22;2136;48.502;9.194;2022-12-18T02:29:50;-8.50;62.30
4245;DHT22;2136;48.502;9.194;2022-12-18T02:32:22;-8.50;62.10
4245;DHT22;2136;48.502;9.194;2022-12-18T02:34:52;-8.50;62.00
4245;DHT22;2136;48.502;9.194;2022-12-18T02:37:21;-8.50;62.00
4245;DHT22;2136;48.502;9.194;2022-12-18T02:39:49;-8.50;61.90
4245;DHT22;2136;48.502;9.194;2022-12-18T02:42:19;-8.50;61.80
4245;DHT22;2136;48.502;9.194;2022-12-18T02:44:48;-8.60;61.60
4245;DHT22;2136;48.502;9.194;2022-12-18T02:47:17;-8.60;61.90
4245;DHT22;2136;48.502;9.194;2022-12-18T02:49:55;-8.60;61.80
4245;DHT22;2136;48.502;9.194;2022-12-18T02:52:31;-8.60;61.90
4245;DHT22;2136;48.502;9.194;2022-12-18T02:55:08;-8.60;62.00
4245;DHT22;2136;48.502;9.194;2022-12-18T02:57:42;-8.60;62.20
4245;DHT22;2136;48.502;9.194;2022-12-18T03:00:12;-8.70;62.50
4245;DHT22;2136;48.502;9.194;2022-12-18T03:02:44;-8.60;62.60
4245;DHT22;2136;48.502;9.194;2022-12-18T03:05:15;-8.60;62.60
4245;DHT22;2136;48.502;9.194;2022-12-18T03:07:48;-8.60;62.60
4245;DHT22;2136;48.502;9.194;2022-12-18T03:10:20;-8.60;62.90
4245;DHT22;2136;48.502;9.194;2022-12-18T03:12:53;-8.60;63.20
4245;DHT22;2136;48.502;9.194;2022-12-18T03:15:24;-8.50;63.60
4245;DHT22;2136;48.502;9.194;2022-12-18T03:17:56;-8.50;63.50
4245;DHT22;2136;48.502;9.194;2022-12-18T03:20:27;-8.40;63.30
4245;DHT22;2136;48.502;9.194;2022-12-18T03:22:59;-8.50;63.80
4245;DHT22;2136;48.502;9.194;2022-12-18T03:25:30;-8.40;63.10
4245;DHT22;2136;48.502;9.194;2022-12-18T03:28:01;-8.40;63.10
4245;DHT22;2136;48.502;9.194;2022-12-18T03:30:30;-8.40;62.90
4245;DHT22;2136;48.502;9.194;2022-12-18T03:33:05;-8.40;63.00
4245;DHT22;2136;48.502;9.194;2022-12-18T03:35:35;-8.30;63.00
4245;DHT22;2136;48.502;9.194;2022-12-18T03:38:04;-8.40;62.70
4245;DHT22;2136;48.502;9.194;2022-12-18T03:40:36;-8.30;62.90
4245;DHT22;2136;48.502;9.194;2022-12-18T03:43:10;-8.30;63.30
4245;DHT22;2136;48.502;9.194;2022-12-18T03:45:44;-8.30;63.40
4245;DHT22;2136;48.502;9.194;2022-12-18T03:48:18;-8.20;63.50
4245;DHT22;2136;48.502;9.194;2022-12-18T03:50:55;-8.20;63.60
4245;DHT22;2136;48.502;9.194;2022-12-18T03:53:28;-8.20;64.10
4245;DHT22;2136;48.502;9.194;2022-12-18T03:55:58;-8.20;63.60
4245;DHT22;2136;48.502;9.194;2022-12-18T03:58:29;-8.20;63.80
4245;DHT22;2136;48.502;9.194;2022-12-18T04:01:02;-8.20;63.80
4245;DHT22;2136;48.502;9.194;2022-12-18T04:03:29;-8.20;63.80
4245;DHT22;2136;48.502;9.194;2022-12-18T04:05:59;-8.30;64.00
4245;DHT22;2136;48.502;9.194;2022-12-18T04:08:27;-8.20;64.20
4245;DHT22;2136;48.502;9.194;2022-12-18T04:10:54;-8.20;64.30
4245;DHT22;2136;48.502;9.194;2022-12-18T04:13:24;-8.30;64.70
4245;DHT22;2136;48.502;9.194;2022-12-18T04:15:55;-8.30;64.30
4245;DHT22;2136;48.502;9.194;2022-12-18T04:18:22;-8.30;64.30
4245;DHT22;2136;48.502;9.194;2022-12-18T04:20:48;-8.30;64.40
4245;DHT22;2136;48.502;9.194;2022-12-18T04:23:15;-8.30;64.50
4245;DHT22;2136;48.502;9.194;2022-12-18T04:25:42;-8.30;64.50
4245;DHT22;2136;48.502;9.194;2022-12-18T04:28:09;-8.40;64.30
4245;DHT22;2136;48.502;9.194;2022-12-18T04:30:36;-8.40;64.40
4245;DHT22;2136;48.502;9.194;2022-12-18T04:33:05;-8.40;64.60
4245;DHT22;2136;48.502;9.194;2022-12-18T04:35:34;-8.40;64.60
4245;DHT22;2136;48.502;9.194;2022-12-18T04:38:01;-8.40;64.60
4245;DHT22;2136;48.502;9.194;2022-12-18T04:40:28;-8.40;64.80
4245;DHT22;2136;48.502;9.194;2022-12-18T04:42:54;-8.40;65.00
4245;DHT22;2136;48.502;9.194;2022-12-18T04:45:21;-8.30;65.20
4245;DHT22;2136;48.502;9.194;2022-12-18T04:47:48;-8.30;65.40
4245;DHT22;2136;48.502;9.194;2022-12-18T04:50:16;-8.30;65.40
4245;DHT22;2136;48.502;9.194;2022-12-18T04:52:43;-8.30;65.30
4245;DHT22;2136;48.502;9.194;2022-12-18T04:55:10;-8.30;65.80
4245;DHT22;2136;48.502;9.194;2022-12-18T04:57:37;-8.30;65.00
4245;DHT22;2136;48.502;9.194;2022-12-18T05:00:04;-8.30;65.00
4245;DHT22;2136;48.502;9.194;2022-12-18T05:02:31;-8.30;65.10
4245;DHT22;2136;48.502;9.194;2022-12-18T05:04:58;-8.30;65.10
4245;DHT22;2136;48.502;9.194;2022-12-18T05:07:26;-8.30;65.30
4245;DHT22;2136;48.502;9.194;2022-12-18T05:09:53;-8.30;65.40
4245;DHT22;2136;48.502;9.194;2022-12-18T05:12:20;-8.30;65.50
4245;DHT22;2136;48.502;9.194;2022-12-18T05:14:47;-8.30;65.40
4245;DHT22;2136;48.502;9.194;2022-12-18T05:17:13;-8.30;65.40
4245;DHT22;2136;48.502;9.194;2022-12-18T05:19:40;-8.30;65.40
4245;DHT22;2136;48.502;9.194;2022-12-18T05:22:07;-8.30;65.40
4245;DHT22;2136;48.502;9.194;2022-12-18T05:24:35;-8.30;65.20
4245;DHT22;2136;48.502;9.194;2022-12-18T05:27:02;-8.30;64.80
4245;DHT22;2136;48.502;9.194;2022-12-18T05:29:29;-8.40;64.60
4245;DHT22;2136;48.502;9.194;2022-12-18T05:31:56;-8.40;64.60
4245;DHT22;2136;48.502;9.194;2022-12-18T05:34:23;-8.40;64.90
4245;DHT22;2136;48.502;9.194;2022-12-18T05:36:49;-8.50;65.00
4245;DHT22;2136;48.502;9.194;2022-12-18T05:39:16;-8.50;65.10
4245;DHT22;2136;48.502;9.194;2022-12-18T05:41:44;-8.40;65.10
4245;DHT22;2136;48.502;9.194;2022-12-18T05:44:11;-8.50;65.20
4245;DHT22;2136;48.502;9.194;2022-12-18T05:46:38;-8.50;65.20
4245;DHT22;2136;48.502;9.194;2022-12-18T05:49:04;-8.50;65.00
4245;DHT22;2136;48.502;9.194;2022-12-18T05:51:31;-8.50;65.00
4245;DHT22;2136;48.502;9.194;2022-12-18T05:53:58;-8.50;64.90
4245;DHT22;2136;48.502;9.194;2022-12-18T05:56:25;-8.50;65.00
4245;DHT22;2136;48.502;9.194;2022-12-18T05:58:54;-8.50;65.10
4245;DHT22;2136;48.502;9.194;2022-12-18T06:01:23;-8.50;65.10
4245;DHT22;2136;48.502;9.194;2022-12-18T06:03:50;-8.50;65.00
4245;DHT22;2136;48.502;9.194;2022-12-18T06:06:20;-8.50;64.60
4245;DHT22;2136;48.502;9.194;2022-12-18T06:08:48;-8.50;64.90
4245;DHT22;2136;48.502;9.194;2022-12-18T06:11:18;-8.50;65.00
4245;DHT22;2136;48.502;9.194;2022-12-18T06:13:44;-8.60;64.90
4245;DHT22;2136;48.502;9.194;2022-12-18T06:16:13;-8.60;64.60
4245;DHT22;2136;48.502;9.194;2022-12-18T06:18:40;-8.60;64.20
4245;DHT22;2136;48.502;9.194;2022-12-18T06:21:06;-8.70;63.80
4245;DHT22;2136;48.502;9.194;2022-12-18T06:23:33;-8.70;63.80
4245;DHT22;2136;48.502;9.194;2022-12-18T06:26:04;-8.80;64.50
4245;DHT22;2136;48.502;9.194;2022-12-18T06:28:31;-8.80;64.50
4245;DHT22;2136;48.502;9.194;2022-12-18T06:30:58;-8.80;63.50
4245;DHT22;2136;48.502;9.194;2022-12-18T06:33:27;-8.90;63.70
4245;DHT22;2136;48.502;9.194;2022-12-18T06:35:58;-8.90;64.00
4245;DHT22;2136;48.502;9.194;2022-12-18T06:38:25;-8.90;64.30
4245;DHT22;2136;48.502;9.194;2022-12-18T06:40:52;-8.90;64.10
4245;DHT22;2136;48.502;9.194;2022-12-18T06:43:19;-8.90;64.10
4245;DHT22;2136;48.502;9.194;2022-12-18T06:45:46;-8.90;64.10
4245;DHT22;2136;48.502;9.194;2022-12-18T06:48:18;-9.00;64.10
4245;DHT22;2136;48.502;9.194;2022-12-18T06:50:46;-9.00;64.20
4245;DHT22;2136;48.502;9.194;2022-12-18T06:53:13;-9.10;64.00
4245;DHT22;2136;48.502;9.194;2022-12-18T06:55:40;-9.10;63.80
4245;DHT22;2136;48.502;9.194;2022-12-18T06:58:07;-9.10;63.60
4245;DHT22;2136;48.502;9.194;2022-12-18T07:00:33;-9.10;63.40
4245;DHT22;2136;48.502;9.194;2022-12-18T07:03:00;-9.20;63.60
4245;DHT22;2136;48.502;9.194;2022-12-18T07:05:27;-9.20;63.40
4245;DHT22;2136;48.502;9.194;2022-12-18T07:07:55;-9.10;63.60
4245;DHT22;2136;48.502;9.194;2022-12-18T07:10:22;-9.10;63.80
4245;DHT22;2136;48.502;9.194;2022-12-18T07:12:49;-9.10;63.50
4245;DHT22;2136;48.502;9.194;2022-12-18T07:15:16;-9.10;63.10
4245;DHT22;2136;48.502;9.194;2022-12-18T07:17:43;-9.10;63.20
4245;DHT22;2136;48.502;9.194;2022-12-18T07:20:10;-9.20;63.00
4245;DHT22;2136;48.502;9.194;2022-12-18T07:22:37;-9.10;63.00
4245;DHT22;2136;48.502;9.194;2022-12-18T07:25:07;-9.10;62.90
4245;DHT22;2136;48.502;9.194;2022-12-18T07:27:34;-9.10;62.80
4245;DHT22;2136;48.502;9.194;2022-12-18T07:30:00;-9.20;62.10
4245;DHT22;2136;48.502;9.194;2022-12-18T07:32:27;-9.20;62.00
4245;DHT22;2136;48.502;9.194;2022-12-18T07:34:54;-9.20;62.00
4245;DHT22;2136;48.502;9.194;2022-12-18T07:37:21;-9.20;61.90
4245;DHT22;2136;48.502;9.194;2022-12-18T07:39:48;-9.20;61.70
4245;DHT22;2136;48.502;9.194;2022-12-18T07:42:16;-9.20;61.90
4245;DHT22;2136;48.502;9.194;2022-12-18T07:44:58;-9.20;61.90
4245;DHT22;2136;48.502;9.194;2022-12-18T07:47:25;-9.20;61.80
4245;DHT22;2136;48.502;9.194;2022-12-18T07:49:52;-9.10;61.90
4245;DHT22;2136;48.502;9.194;2022-12-18T07:52:18;-9.10;61.90
4245;DHT22;2136;48.502;9.194;2022-12-18T07:54:45;-9.10;61.80
4245;DHT22;2136;48.502;9.194;2022-12-18T07:57:15;-9.10;61.50
4245;DHT22;2136;48.502;9.194;2022-12-18T07:59:42;-9.10;61.20
4245;DHT22;2136;48.502;9.194;2022-12-18T08:02:09;-9.10;61.20
4245;DHT22;2136;48.502;9.194;2022-12-18T08:04:36;-9.00;61.10
4245;DHT22;2136;48.502;9.194;2022-12-18T08:07:03;-9.00;61.10
4245;DHT22;2136;48.502;9.194;2022-12-18T08:09:29;-9.00;61.20
4245;DHT22;2136;48.502;9.194;2022-12-18T08:11:56;-8.90;61.30
4245;DHT22;2136;48.502;9.194;2022-12-18T08:14:24;-8.90;61.40
4245;DHT22;2136;48.502;9.194;2022-12-18T08:16:51;-8.80;61.60
4245;DHT22;2136;48.502;9.194;2022-12-18T08:19:18;-8.80;61.40
4245;DHT22;2136;48.502;9.194;2022-12-18T08:21:45;-8.70;61.40
4245;DHT22;2136;48.502;9.194;2022-12-18T08:24:11;-8.70;61.60
4245;DHT22;2136;48.502;9.194;2022-12-18T08:26:38;-8.60;61.70
4245;DHT22;2136;48.502;9.194;2022-12-18T08:29:05;-8.50;62.50
4245;DHT22;2136;48.502;9.194;2022-12-18T08:31:33;-8.40;62.00
4245;DHT22;2136;48.502;9.194;2022-12-18T08:34:00;-8.40;61.90
4245;DHT22;2136;48.502;9.194;2022-12-18T08:36:27;-8.30;62.20
4245;DHT22;2136;48.502;9.194;2022-12-18T08:38:54;-8.20;62.70
4245;DHT22;2136;48.502;9.194;2022-12-18T08:41:21;-8.10;61.80
4245;DHT22;2136;48.502;9.194;2022-12-18T08:43:48;-8.10;61.60
4245;DHT22;2136;48.502;9.194;2022-12-18T08:46:35;-8.00;62.10
4245;DHT22;2136;48.502;9.194;2022-12-18T08:49:03;-7.90;61.70
4245;DHT22;2136;48.502;9.194;2022-12-18T08:51:30;-7.90;61.30
4245;DHT22;2136;48.502;9.194;2022-12-18T08:53:57;-7.90;61.00
4245;DHT22;2136;48.502;9.194;2022-12-18T08:56:24;-7.80;61.20
4245;DHT22;2136;48.502;9.194;2022-12-18T08:58:52;-7.80;61.20
4245;DHT22;2136;48.502;9.194;2022-12-18T09:01:19;-7.70;61.30
4245;DHT22;2136;48.502;9.194;2022-12-18T09:03:49;-7.70;61.90
4245;DHT22;2136;48.502;9.194;2022-12-18T09:06:17;-7.60;61.00
4245;DHT22;2136;48.502;9.194;2022-12-18T09:08:44;-7.60;60.80
4245;DHT22;2136;48.502;9.194;2022-12-18T09:11:14;-7.50;60.90
4245;DHT22;2136;48.502;9.194;2022-12-18T09:13:41;-7.50;60.80
4245;DHT22;2136;48.502;9.194;2022-12-18T09:16:08;-7.40;60.60
4245;DHT22;2136;48.502;9.194;2022-12-18T09:18:35;-7.40;60.60
4245;DHT22;2136;48.502;9.194;2022-12-18T09:21:09;-7.30;60.70
4245;DHT22;2136;48.502;9.194;2022-12-18T09:23:36;-7.20;61.50
4245;DHT22;2136;48.502;9.194;2022-12-18T09:26:03;-7.10;61.40
4245;DHT22;2136;48.502;9.194;2022-12-18T09:28:30;-7.00;61.60
4245;DHT22;2136;48.502;9.194;2022-12-18T09:30:57;-6.90;61.70
4245;DHT22;2136;48.502;9.194;2022-12-18T09:33:24;-6.80;61.90
4245;DHT22;2136;48.502;9.194;2022-12-18T09:35:50;-6.70;62.10
4245;DHT22;2136;48.502;9.194;2022-12-18T09:38:19;-6.50;62.60
4245;DHT22;2136;48.502;9.194;2022-12-18T09:40:49;-6.40;62.50
4245;DHT22;2136;48.502;9.194;2022-12-18T09:43:18;-6.30;62.80
4245;DHT22;2136;48.502;9.194;2022-12-18T09:45:49;-6.20;63.10
4245;DHT22;2136;48.502;9.194;2022-12-18T09:48:20;-6.10;63.20
4245;DHT22;2136;48.502;9.194;2022-12-18T09:50:49;-6.00;63.20
4245;DHT22;2136;48.502;9.194;2022-12-18T09:53:21;-5.80;63.40
4245;DHT22;2136;48.502;9.194;2022-12-18T09:55:49;-5.80;63.20
4245;DHT22;2136;48.502;9.194;2022-12-18T09:58:24;-5.70;63.40
4245;DHT22;2136;48.502;9.194;2022-12-18T10:00:53;-5.60;63.50
4245;DHT22;2136;48.502;9.194;2022-12-18T10:03:20;-5.50;63.20
4245;DHT22;2136;48.502;9.194;2022-12-18T10:05:55;-5.40;63.50
4245;DHT22;2136;48.502;9.194;2022-12-18T10:08:34;-5.30;64.30
4245;DHT22;2136;48.502;9.194;2022-12-18T10:11:16;-5.20;63.40
4245;DHT22;2136;48.502;9.194;2022-12-18T10:13:52;-5.10;62.90
4245;DHT22;2136;48.502;9.194;2022-12-18T10:16:27;-5.10;62.80
4245;DHT22;2136;48.502;9.194;2022-12-18T10:19:04;-5.00;63.00
4245;DHT22;2136;48.502;9.194;2022-12-18T10:21:42;-5.00;63.20
4245;DHT22;2136;48.502;9.194;2022-12-18T10:24:19;-4.90;63.30
4245;DHT22;2136;48.502;9.194;2022-12-18T10:26:47;-4.80;63.80
4245;DHT22;2136;48.502;9.194;2022-12-18T10:29:15;-4.70;63.80
4245;DHT22;2136;48.502;9.194;2022-12-18T10:31:43;-4.60;63.70
4245;DHT22;2136;48.502;9.194;2022-12-18T10:34:10;-4.50;63.60
4245;DHT22;2136;48.502;9.194;2022-12-18T10:36:37;-4.30;63.70
4245;DHT22;2136;48.502;9.194;2022-12-18T10:39:19;-4.10;63.80
4245;DHT22;2136;48.502;9.194;2022-12-18T10:41:47;-3.80;64.10
4245;DHT22;2136;48.502;9.194;2022-12-18T10:44:17;-3.50;64.60
4245;DHT22;2136;48.502;9.194;2022-12-18T10:46:44;-2.90;65.30
4245;DHT22;2136;48.502;9.194;2022-12-18T10:49:27;-2.40;64.40
4245;DHT22;2136;48.502;9.194;2022-12-18T10:52:07;-2.00;63.00
4245;DHT22;2136;48.502;9.194;2022-12-18T10:54:36;-1.80;61.60
4245;DHT22;2136;48.502;9.194;2022-12-18T10:57:32;-1.80;60.90
4245;DHT22;2136;48.502;9.194;2022-12-18T11:00:18;-1.80;60.70
4245;DHT22;2136;48.502;9.194;2022-12-18T11:02:46;-1.70;60.30
4245;DHT22;2136;48.502;9.194;2022-12-18T11:05:25;-1.60;60.70
4245;DHT22;2136;48.502;9.194;2022-12-18T11:07:52;-1.50;61.50
4245;DHT22;2136;48.502;9.194;2022-12-18T11:10:25;-1.20;61.40
4245;DHT22;2136;48.502;9.194;2022-12-18T11:12:52;-1.00;62.00
4245;DHT22;2136;48.502;9.194;2022-12-18T11:15:21;-0.60;61.90
4245;DHT22;2136;48.502;9.194;2022-12-18T11:17:50;-0.30;62.10
4245;DHT22;2136;48.502;9.194;2022-12-18T11:20:27;0.10;62.30
4245;DHT22;2136;48.502;9.194;2022-12-18T11:22:58;0.70;62.90
4245;DHT22;2136;48.502;9.194;2022-12-18T11:25:27;1.80;61.60
4245;DHT22;2136;48.502;9.194;2022-12-18T11:27:56;3.30;59.30
4245;DHT22;2136;48.502;9.194;2022-12-18T11:30:25;4.70;56.50
4245;DHT22;2136;48.502;9.194;2022-12-18T11:32:58;6.30;54.40
4245;DHT22;2136;48.502;9.194;2022-12-18T11:35:43;7.50;52.70
4245;DHT22;2136;48.502;9.194;2022-12-18T11:38:19;7.70;49.80
4245;DHT22;2136;48.502;9.194;2022-12-18T11:40:55;7.30;48.50
4245;DHT22;2136;48.502;9.194;2022-12-18T11:43:27;6.60;47.40
4245;DHT22;2136;48.502;9.194;2022-12-18T11:45:58;5.90;47.00
4245;DHT22;2136;48.502;9.194;2022-12-18T11:48:28;5.30;47.40
4245;DHT22;2136;48.502;9.194;2022-12-18T11:50:59;4.70;48.00
4245;DHT22;2136;48.502;9.194;2022-12-18T11:53:27;4.20;48.40
4245;DHT22;2136;48.502;9.194;2022-12-18T11:56:02;3.70;48.80
4245;DHT22;2136;48.502;9.194;2022-12-18T11:58:44;3.20;49.50
4245;DHT22;2136;48.502;9.194;2022-12-18T12:01:25;2.70;50.10
4245;DHT22;2136;48.502;9.194;2022-12-18T12:04:21;2.30;51.10
4245;DHT22;2136;48.502;9.194;2022-12-18T12:07:00;2.00;51.90
4245;DHT22;2136;48.502;9.194;2022-12-18T12:09:32;1.80;52.50
4245;DHT22;2136;48.502;9.194;2022-12-18T12:12:16;1.60;53.00
4245;DHT22;2136;48.502;9.194;2022-12-18T12:14:53;1.40;53.60
4245;DHT22;2136;48.502;9.194;2022-12-18T12:17:31;1.30;54.20
4245;DHT22;2136;48.502;9.194;2022-12-18T12:20:08;1.20;54.70
4245;DHT22;2136;48.502;9.194;2022-12-18T12:22:42;1.10;55.20
4245;DHT22;2136;48.502;9.194;2022-12-18T12:25:25;1.00;55.50
4245;DHT22;2136;48.502;9.194;2022-12-18T12:28:04;1.00;56.00
4245;DHT22;2136;48.502;9.194;2022-12-18T12:30:42;0.90;56.20
4245;DHT22;2136;48.502;9.194;2022-12-18T12:33:22;0.90;56.60
4245;DHT22;2136;48.502;9.194;2022-12-18T12:35:59;0.80;56.90
4245;DHT22;2136;48.502;9.194;2022-12-18T12:38:33;0.80;57.20
4245;DHT22;2136;48.502;9.194;2022-12-18T12:41:04;0.70;57.30
4245;DHT22;2136;48.502;9.194;2022-12-18T12:43:37;0.70;57.50
4245;DHT22;2136;48.502;9.194;2022-12-18T12:46:05;0.70;57.90
4245;DHT22;2136;48.502;9.194;2022-12-18T12:48:40;0.70;58.10
4245;DHT22;2136;48.502;9.194;2022-12-18T12:51:14;0.60;58.20
4245;DHT22;2136;48.502;9.194;2022-12-18T12:53:43;0.60;58.30
4245;DHT22;2136;48.502;9.194;2022-12-18T12:56:12;0.80;58.60
4245;DHT22;2136;48.502;9.194;2022-12-18T12:58:48;0.70;59.20
4245;DHT22;2136;48.502;9.194;2022-12-18T13:01:25;0.70;58.90
4245;DHT22;2136;48.502;9.194;2022-12-18T13:03:57;0.60;59.40
4245;DHT22;2136;48.502;9.194;2022-12-18T13:06:43;0.60;59.10
4245;DHT22;2136;48.502;9.194;2022-12-18T13:09:13;0.50;59.30
4245;DHT22;2136;48.502;9.194;2022-12-18T13:11:41;0.50;59.40
4245;DHT22;2136;48.502;9.194;2022-12-18T13:14:30;0.50;59.60
4245;DHT22;2136;48.502;9.194;2022-12-18T13:17:23;0.40;59.60
4245;DHT22;2136;48.502;9.194;2022-12-18T13:20:05;0.40;59.80
4245;DHT22;2136;48.502;9.194;2022-12-18T13:22:35;0.30;59.90
4245;DHT22;2136;48.502;9.194;2022-12-18T13:25:02;0.30;60.00
4245;DHT22;2136;48.502;9.194;2022-12-18T13:28:07;0.30;60.20
4245;DHT22;2136;48.502;9.194;2022-12-18T13:30:44;0.20;60.30
4245;DHT22;2136;48.502;9.194;2022-12-18T13:33:40;0.10;60.50
4245;DHT22;2136;48.502;9.194;2022-12-18T13:36:15;0.10;61.30
4245;DHT22;2136;48.502;9.194;2022-12-18T13:38:43;0.00;61.40
4245;DHT22;2136;48.502;9.194;2022-12-18T13:41:24;0.00;61.60
4245;DHT22;2136;48.502;9.194;2022-12-18T13:43:52;0.00;61.80
4245;DHT22;2136;48.502;9.194;2022-12-18T13:46:23;0.00;62.00
4245;DHT22;2136;48.502;9.194;2022-12-18T13:48:57;0.00;62.20
4245;DHT22;2136;48.502;9.194;2022-12-18T13:51:24;0.00;62.40
4245;DHT22;2136;48.502;9.194;2022-12-18T13:53:54;0.00;62.50
4245;DHT22;2136;48.502;9.194;2022-12-18T13:56:26;0.00;62.60
4245;DHT22;2136;48.502;9.194;2022-12-18T13:59:24;0.00;62.40
4245;DHT22;2136;48.502;9.194;2022-12-18T14:01:54;-0.10;62.60
4245;DHT22;2136;48.502;9.194;2022-12-18T14:04:25;-0.10;62.90
4245;DHT22;2136;48.502;9.194;2022-12-18T14:06:55;-0.20;63.20
4245;DHT22;2136;48.502;9.194;2022-12-18T14:09:26;-0.20;63.30
4245;DHT22;2136;48.502;9.194;2022-12-18T14:11:53;-0.20;63.60
4245;DHT22;2136;48.502;9.194;2022-12-18T14:14:43;-0.30;64.00
4245;DHT22;2136;48.502;9.194;2022-12-18T14:17:13;-0.30;64.40
4245;DHT22;2136;48.502;9.194;2022-12-18T14:19:44;-0.30;64.50
4245;DHT22;2136;48.502;9.194;2022-12-18T14:22:16;-0.30;64.60
4245;DHT22;2136;48.502;9.194;2022-12-18T14:24:44;-0.40;64.70
4245;DHT22;2136;48.502;9.194;2022-12-18T14:27:21;-0.20;65.00
4245;DHT22;2136;48.502;9.194;2022-12-18T14:29:48;-0.30;66.10
4245;DHT22;2136;48.502;9.194;2022-12-18T14:32:19;-0.30;65.70
4245;DHT22;2136;48.502;9.194;2022-12-18T14:34:47;-0.30;65.90
4245;DHT22;2136;48.502;9.194;2022-12-18T14:37:16;-0.40;65.80
4245;DHT22;2136;48.502;9.194;2022-12-18T14:39:55;-0.40;65.80
4245;DHT22;2136;48.502;9.194;2022-12-18T14:42:22;-0.40;65.90
4245;DHT22;2136;48.502;9.194;2022-12-18T14:48:05;-0.60;66.30
4245;DHT22;2136;48.502;9.194;2022-12-18T14:50:34;-0.60;66.60
4245;DHT22;2136;48.502;9.194;2022-12-18T14:53:01;-0.70;67.40
4245;DHT22;2136;48.502;9.194;2022-12-18T14:55:28;-0.70;66.90
4245;DHT22;2136;48.502;9.194;2022-12-18T14:57:56;-0.70;66.90
4245;DHT22;2136;48.502;9.194;2022-12-18T15:00:24;-0.80;66.90
4245;DHT22;2136;48.502;9.194;2022-12-18T15:02:54;-0.90;67.00
4245;DHT22;2136;48.502;9.194;2022-12-18T15:05:26;-0.90;67.20
4245;DHT22;2136;48.502;9.194;2022-12-18T15:07:55;-0.90;67.40
4245;DHT22;2136;48.502;9.194;2022-12-18T15:10:23;-1.00;67.70
4245;DHT22;2136;48.502;9.194;2022-12-18T15:13:06;-1.00;67.90
4245;DHT22;2136;48.502;9.194;2022-12-18T15:15:47;-1.10;68.00
4245;DHT22;2136;48.502;9.194;2022-12-18T15:18:16;-1.10;68.20
4245;DHT22;2136;48.502;9.194;2022-12-18T15:20:48;-1.10;68.10
4245;DHT22;2136;48.502;9.194;2022-12-18T15:23:17;-1.20;68.20
4245;DHT22;2136;48.502;9.194;2022-12-18T15:25:46;-1.20;68.50
4245;DHT22;2136;48.502;9.194;2022-12-18T15:28:19;-1.30;68.50
4245;DHT22;2136;48.502;9.194;2022-12-18T15:31:02;-1.30;68.80
4245;DHT22;2136;48.502;9.194;2022-12-18T15:33:32;-1.40;68.80
4245;DHT22;2136;48.502;9.194;2022-12-18T15:36:03;-1.40;68.90
4245;DHT22;2136;48.502;9.194;2022-12-18T15:38:30;-1.50;69.30
4245;DHT22;2136;48.502;9.194;2022-12-18T15:40:57;-1.50;69.40
4245;DHT22;2136;48.502;9.194;2022-12-18T16:44:34;-1.80;70.60
4245;DHT22;2136;48.502;9.194;2022-12-18T16:47:01;-1.80;70.20
4245;DHT22;2136;48.502;9.194;2022-12-18T16:49:28;-1.70;70.40
4245;DHT22;2136;48.502;9.194;2022-12-18T16:51:55;-1.70;70.40
4245;DHT22;2136;48.502;9.194;2022-12-18T16:54:22;-1.70;70.40
4245;DHT22;2136;48.502;9.194;2022-12-18T16:56:50;-1.70;70.40
4245;DHT22;2136;48.502;9.194;2022-12-18T16:59:17;-1.60;70.50
4245;DHT22;2136;48.502;9.194;2022-12-18T17:01:46;-1.60;70.40
4245;DHT22;2136;48.502;9.194;2022-12-18T17:04:13;-1.50;70.60
4245;DHT22;2136;48.502;9.194;2022-12-18T17:06:41;-1.50;70.70
4245;DHT22;2136;48.502;9.194;2022-12-18T17:09:11;-1.50;70.80
4245;DHT22;2136;48.502;9.194;2022-12-18T17:11:38;-1.50;70.90
4245;DHT22;2136;48.502;9.194;2022-12-18T17:14:05;-1.50;71.10
4245;DHT22;2136;48.502;9.194;2022-12-18T17:16:33;-1.40;71.30
4245;DHT22;2136;48.502;9.194;2022-12-18T17:19:01;-1.40;71.30
4245;DHT22;2136;48.502;9.194;2022-12-18T17:21:28;-1.40;71.20
4245;DHT22;2136;48.502;9.194;2022-12-18T17:23:55;-1.40;71.30
4245;DHT22;2136;48.502;9.194;2022-12-18T17:26:25;-1.30;71.40
4245;DHT22;2136;48.502;9.194;2022-12-18T17:28:51;-1.30;71.30
4245;DHT22;2136;48.502;9.194;2022-12-18T17:31:20;-1.30;71.40